Time;durP1;ratioP1;P1;durP2;ratioP2;P2;SDS_P1;SDS_P2;PMS_P1;PMS_P2;Temp;Humidity;BMP_temperature;BMP_pressure;BME280_temperature;BME280_humidity;BME280_pressure;Samples;Min_cycle;Max_cycle;Signal;HPM_P1;HPM_P2
2023/05/18 00:02:03;;;;;;;19.00;3.10;;;9.80;99.50;;;;;;4936742;29;20191;-82
2023/05/18 00:04:31;;;;;;;12.27;2.90;;;9.80;99.60;;;;;;4935549;29;20272;-82
2023/05/18 00:07:02;;;;;;;9.95;2.88;;;9.70;99.70;;;;;;4936540;29;20218;-82
2023/05/18 00:09:29;;;;;;;16.45;3.17;;;9.80;99.70;;;;;;4936127;29;20234;-82
2023/05/18 00:11:57;;;;;;;9.05;3.10;;;9.70;99.90;;;;;;4935636;29;20278;-82
2023/05/18 00:14:23;;;;;;;10.27;2.40;;;9.70;99.60;;;;;;4935493;29;20186;-82
2023/05/18 00:16:49;;;;;;;13.65;2.50;;;9.70;99.50;;;;;;4936938;29;20180;-82
2023/05/18 00:19:15;;;;;;;6.90;2.15;;;9.70;99.30;;;;;;4935132;29;20645;-81
2023/05/18 00:21:42;;;;;;;8.75;2.35;;;9.70;99.00;;;;;;4936970;29;20183;-81
2023/05/18 00:24:11;;;;;;;19.00;2.90;;;9.70;98.90;;;;;;4916649;29;20541;-83
2023/05/18 00:26:38;;;;;;;8.90;2.70;;;9.70;98.90;;;;;;4935062;29;20195;-81
2023/05/18 00:29:05;;;;;;;14.55;2.70;;;9.70;98.90;;;;;;4935115;29;20214;-81
2023/05/18 00:31:35;;;;;;;12.73;2.70;;;9.70;98.90;;;;;;4936296;29;20652;-81
2023/05/18 00:34:02;;;;;;;11.95;3.00;;;9.70;98.90;;;;;;4919401;29;20183;-82
2023/05/18 00:36:28;;;;;;;7.43;2.88;;;9.70;98.90;;;;;;4902987;29;20712;-81
2023/05/18 00:38:54;;;;;;;8.40;2.55;;;9.70;98.90;;;;;;4936497;29;20191;-81
2023/05/18 00:41:20;;;;;;;10.18;2.60;;;9.70;98.90;;;;;;4934042;29;20687;-81
2023/05/18 00:43:46;;;;;;;9.63;2.67;;;9.70;98.90;;;;;;4950506;29;20183;-81
2023/05/18 00:46:12;;;;;;;8.07;2.50;;;9.70;98.90;;;;;;4935608;29;20238;-81
2023/05/18 00:48:38;;;;;;;10.70;2.53;;;9.70;98.90;;;;;;4936206;29;20211;-81
2023/05/18 00:51:05;;;;;;;12.95;2.88;;;9.60;99.00;;;;;;4935997;29;20207;-81
2023/05/18 00:53:32;;;;;;;11.80;2.50;;;9.60;99.00;;;;;;4934911;29;20183;-80
2023/05/18 00:55:57;;;;;;;12.50;2.95;;;9.60;99.00;;;;;;4935882;29;20215;-81
2023/05/18 00:58:25;;;;;;;10.52;2.70;;;9.60;99.00;;;;;;4919283;29;20222;-81
2023/05/18 01:00:52;;;;;;;13.55;3.03;;;9.60;99.00;;;;;;4935627;29;20183;-80
2023/05/18 01:03:19;;;;;;;11.95;2.45;;;9.60;99.10;;;;;;4950981;29;20278;-81
2023/05/18 01:05:49;;;;;;;9.13;2.88;;;9.60;99.10;;;;;;4933119;29;20209;-80
2023/05/18 01:08:18;;;;;;;8.57;2.42;;;9.60;99.10;;;;;;4934787;29;20211;-79
2023/05/18 01:10:49;;;;;;;8.02;2.33;;;9.50;99.10;;;;;;4935908;29;20203;-80
2023/05/18 01:13:23;;;;;;;7.93;2.80;;;9.60;99.10;;;;;;4935722;29;20171;-81
2023/05/18 01:15:53;;;;;;;9.65;2.30;;;9.60;99.10;;;;;;4935412;29;20195;-81
2023/05/18 01:18:27;;;;;;;12.57;2.83;;;9.50;99.10;;;;;;4934438;29;20270;-80
2023/05/18 01:21:18;;;;;;;9.00;2.60;;;9.60;99.10;;;;;;4917711;29;20284;-80
2023/05/18 01:24:14;;;;;;;12.57;2.80;;;9.60;99.10;;;;;;4934958;29;20168;-81
2023/05/18 01:26:45;;;;;;;11.43;2.67;;;9.60;99.00;;;;;;4931317;29;20276;-80
2023/05/18 01:29:14;;;;;;;10.07;2.60;;;9.50;99.00;;;;;;4919176;29;20184;-81
2023/05/18 01:31:40;;;;;;;12.80;2.83;;;9.60;98.90;;;;;;4925296;29;20218;-80
2023/05/18 01:34:06;;;;;;;7.43;2.45;;;9.60;98.90;;;;;;4935832;29;20179;-80
2023/05/18 01:36:32;;;;;;;9.32;2.55;;;9.50;98.80;;;;;;4918324;29;20195;-80
2023/05/18 01:39:00;;;;;;;8.20;2.20;;;9.50;98.80;;;;;;4935904;29;20217;-80
2023/05/18 01:41:28;;;;;;;9.45;2.70;;;9.60;98.80;;;;;;4930910;29;20179;-80
2023/05/18 01:44:00;;;;;;;9.45;2.50;;;9.60;98.80;;;;;;4935670;29;20194;-81
2023/05/18 01:46:45;;;;;;;11.93;3.05;;;9.60;98.90;;;;;;4915104;29;20693;-79
2023/05/18 01:49:40;;;;;;;11.95;2.85;;;9.60;98.90;;;;;;4923238;29;20279;-80
2023/05/18 01:52:10;;;;;;;8.93;2.60;;;9.50;98.80;;;;;;4928242;29;20222;-80
2023/05/18 01:54:41;;;;;;;8.45;2.38;;;9.50;98.80;;;;;;4933755;29;20195;-80
2023/05/18 01:57:08;;;;;;;7.68;2.22;;;9.60;98.90;;;;;;4935732;29;20364;-80
2023/05/18 01:59:35;;;;;;;16.30;2.47;;;9.60;98.80;;;;;;4917999;29;20207;-81
2023/05/18 02:02:02;;;;;;;14.43;2.90;;;9.60;98.90;;;;;;4935601;29;20191;-80
2023/05/18 02:04:28;;;;;;;8.85;2.50;;;9.50;98.90;;;;;;4934232;29;20187;-80
2023/05/18 02:06:54;;;;;;;10.23;2.47;;;9.60;98.90;;;;;;4940503;29;20228;-80
2023/05/18 02:09:21;;;;;;;10.85;2.30;;;9.60;99.00;;;;;;4939987;29;20190;-84
2023/05/18 02:11:48;;;;;;;9.48;2.85;;;9.60;98.90;;;;;;4933300;29;20188;-81
2023/05/18 02:14:14;;;;;;;9.35;2.40;;;9.60;98.90;;;;;;4935180;29;20214;-81
2023/05/18 02:16:40;;;;;;;10.80;3.13;;;9.60;98.90;;;;;;4932830;29;20196;-81
2023/05/18 02:19:06;;;;;;;11.70;2.65;;;9.60;98.80;;;;;;4933804;29;20203;-80
2023/05/18 02:21:34;;;;;;;14.50;2.70;;;9.60;99.20;;;;;;4931589;29;20239;-81
2023/05/18 02:24:01;;;;;;;7.43;2.15;;;9.60;98.90;;;;;;4933677;29;20270;-81
2023/05/18 02:26:27;;;;;;;12.95;2.50;;;9.60;98.90;;;;;;4901663;29;20287;-80
2023/05/18 02:28:53;;;;;;;8.40;2.40;;;9.60;98.90;;;;;;4936485;29;20632;-81
2023/05/18 02:31:18;;;;;;;9.98;2.65;;;9.60;98.80;;;;;;4943531;29;20198;-81
2023/05/18 02:33:44;;;;;;;11.25;2.25;;;9.60;98.80;;;;;;4935090;29;20184;-80
2023/05/18 02:36:11;;;;;;;8.70;2.47;;;9.70;98.80;;;;;;4936863;29;20649;-81
2023/05/18 02:38:42;;;;;;;10.45;2.60;;;9.70;98.70;;;;;;4936787;29;20214;-83
2023/05/18 02:41:11;;;;;;;11.52;3.00;;;9.70;98.60;;;;;;4951130;29;20199;-81
2023/05/18 02:43:37;;;;;;;6.95;2.40;;;9.70;98.70;;;;;;4934261;29;20195;-81
2023/05/18 02:46:03;;;;;;;8.30;2.70;;;9.70;98.70;;;;;;4937406;29;20195;-81
2023/05/18 02:48:29;;;;;;;11.13;2.50;;;9.70;98.80;;;;;;4937391;29;20183;-80
2023/05/18 02:50:56;;;;;;;7.85;2.42;;;9.60;98.90;;;;;;4936210;29;20191;-81
2023/05/18 02:53:22;;;;;;;6.88;2.35;;;9.70;98.90;;;;;;4936916;29;20191;-80
2023/05/18 02:55:48;;;;;;;9.00;2.80;;;9.70;99.00;;;;;;4918154;29;20654;-81
2023/05/18 02:58:24;;;;;;;14.45;2.55;;;9.70;99.10;;;;;;4936591;29;20214;-79
2023/05/18 03:01:11;;;;;;;11.73;2.78;;;9.70;99.10;;;;;;4937043;29;20725;-80
2023/05/18 03:03:42;;;;;;;15.45;2.70;;;9.60;99.20;;;;;;4918357;29;20239;-81
2023/05/18 03:06:08;;;;;;;7.72;2.38;;;9.60;99.30;;;;;;4921063;29;20188;-80
2023/05/18 03:08:39;;;;;;;12.55;2.85;;;9.60;99.40;;;;;;4921296;29;20223;-80
2023/05/18 03:11:05;;;;;;;10.02;3.00;;;9.60;99.60;;;;;;4936010;29;20179;-79
2023/05/18 03:13:31;;;;;;;7.43;2.60;;;9.60;99.70;;;;;;4936307;29;20187;-80
2023/05/18 03:15:58;;;;;;;14.20;3.08;;;9.50;99.80;;;;;;4935733;29;20291;-80
2023/05/18 03:18:24;;;;;;;10.20;2.55;;;9.50;99.90;;;;;;4936643;29;20301;-80
2023/05/18 03:20:50;;;;;;;10.70;2.60;;;9.50;99.90;;;;;;4920699;29;20243;-80
2023/05/18 03:23:19;;;;;;;6.53;2.50;;;9.50;99.90;;;;;;4917062;29;20665;-82
2023/05/18 03:25:45;;;;;;;8.68;3.20;;;9.50;99.90;;;;;;4927633;29;20721;-79
2023/05/18 03:28:10;;;;;;;11.07;3.20;;;9.50;99.90;;;;;;4936276;29;20266;-80
2023/05/18 03:30:37;;;;;;;11.90;2.83;;;9.50;99.90;;;;;;4935705;29;20201;-80
2023/05/18 03:33:04;;;;;;;10.45;2.80;;;9.50;99.90;;;;;;4920668;29;20194;-81
2023/05/18 03:35:30;;;;;;;11.35;2.90;;;9.40;99.90;;;;;;4938630;29;20190;-81
2023/05/18 03:37:56;;;;;;;9.55;3.10;;;9.50;99.90;;;;;;4947176;28;20586;-80
2023/05/18 03:40:23;;;;;;;9.35;3.28;;;9.40;99.90;;;;;;4932440;29;20195;-81
2023/05/18 03:42:49;;;;;;;13.18;3.17;;;9.40;99.90;;;;;;4935475;29;20211;-80
2023/05/18 03:45:16;;;;;;;9.60;2.75;;;9.40;99.90;;;;;;4937534;29;20196;-82
2023/05/18 03:47:43;;;;;;;14.77;3.38;;;9.50;99.90;;;;;;4941470;29;20273;-80
2023/05/18 03:50:09;;;;;;;15.23;2.95;;;9.50;99.90;;;;;;4937197;29;20286;-80
2023/05/18 03:52:36;;;;;;;13.20;3.15;;;9.40;99.90;;;;;;4966758;28;20233;-81
2023/05/18 03:55:03;;;;;;;9.00;2.70;;;9.50;99.90;;;;;;4920004;29;20184;-80
2023/05/18 03:57:31;;;;;;;10.82;2.50;;;9.40;99.90;;;;;;4951932;29;20183;-81
2023/05/18 03:59:59;;;;;;;7.13;2.63;;;9.50;99.90;;;;;;4935833;29;20184;-80
2023/05/18 04:02:25;;;;;;;15.00;3.97;;;9.50;99.90;;;;;;4936294;29;20195;-79
2023/05/18 04:04:52;;;;;;;16.85;3.50;;;9.50;99.90;;;;;;4919970;29;20191;-81
2023/05/18 04:07:23;;;;;;;10.43;3.33;;;9.50;99.90;;;;;;4934686;29;20202;-81
2023/05/18 04:09:50;;;;;;;11.23;3.42;;;9.50;99.90;;;;;;4951866;29;20191;-80
2023/05/18 04:12:16;;;;;;;10.63;3.42;;;9.50;99.90;;;;;;4935666;29;20183;-80
2023/05/18 04:14:42;;;;;;;8.25;2.97;;;9.50;99.90;;;;;;4945383;29;20275;-81
2023/05/18 04:17:08;;;;;;;11.52;3.40;;;9.50;99.90;;;;;;4920119;29;20270;-80
2023/05/18 04:19:36;;;;;;;13.45;3.20;;;9.50;99.90;;;;;;4935444;29;20263;-82
2023/05/18 04:22:04;;;;;;;8.27;2.60;;;9.50;99.90;;;;;;4948108;29;20183;-80
2023/05/18 04:24:33;;;;;;;12.30;3.30;;;9.50;99.90;;;;;;4935524;29;20712;-80
2023/05/18 04:27:01;;;;;;;9.00;2.70;;;9.50;99.90;;;;;;4951509;29;20207;-80
2023/05/18 04:29:28;;;;;;;11.00;2.83;;;9.50;99.90;;;;;;4935275;29;20199;-80
2023/05/18 04:31:59;;;;;;;9.80;2.78;;;9.50;99.90;;;;;;4935217;29;20189;-80
2023/05/18 04:34:30;;;;;;;7.68;2.58;;;9.60;99.90;;;;;;4935142;29;20171;-80
2023/05/18 04:36:59;;;;;;;12.82;2.90;;;9.50;99.90;;;;;;4921208;29;20242;-81
2023/05/18 04:39:26;;;;;;;14.27;2.90;;;9.60;99.90;;;;;;4935581;29;20211;-87
2023/05/18 04:41:58;;;;;;;12.85;2.75;;;9.60;99.90;;;;;;4934533;29;20281;-81
2023/05/18 04:44:27;;;;;;;12.77;2.60;;;9.60;99.90;;;;;;4935491;29;20214;-81
2023/05/18 04:46:55;;;;;;;12.23;2.92;;;9.60;99.90;;;;;;4931650;29;20235;-79
2023/05/18 04:49:24;;;;;;;10.70;2.55;;;9.60;99.90;;;;;;4920710;29;20191;-80
2023/05/18 04:51:55;;;;;;;12.30;2.63;;;9.60;99.90;;;;;;4929971;29;20192;-81
2023/05/18 04:54:25;;;;;;;10.48;3.13;;;9.60;99.90;;;;;;4936850;29;20198;-80
2023/05/18 04:56:51;;;;;;;17.42;2.90;;;9.60;99.90;;;;;;4932862;29;20225;-82
2023/05/18 04:59:18;;;;;;;7.75;2.75;;;9.60;99.90;;;;;;4934995;29;20749;-80
2023/05/18 05:01:44;;;;;;;12.13;2.70;;;9.70;99.90;;;;;;4933632;29;20191;-80
2023/05/18 05:04:11;;;;;;;13.52;2.47;;;9.60;99.90;;;;;;4934767;29;20203;-80
2023/05/18 05:06:37;;;;;;;11.13;2.40;;;9.60;99.90;;;;;;4934259;29;20669;-80
2023/05/18 05:09:03;;;;;;;12.77;2.58;;;9.60;99.90;;;;;;4924589;29;20246;-82
2023/05/18 05:11:29;;;;;;;9.50;2.65;;;9.60;99.90;;;;;;4918983;29;20187;-81
2023/05/18 05:13:56;;;;;;;15.68;2.50;;;9.60;99.90;;;;;;4900677;29;20187;-81
2023/05/18 05:16:22;;;;;;;6.10;2.35;;;9.60;99.90;;;;;;4911507;29;20183;-81
2023/05/18 05:18:48;;;;;;;11.73;2.47;;;9.60;99.90;;;;;;4931659;29;20203;-82
2023/05/18 05:21:15;;;;;;;13.55;2.45;;;9.60;99.90;;;;;;4934886;29;20183;-84
2023/05/18 05:23:40;;;;;;;9.15;2.40;;;9.60;99.90;;;;;;4918309;29;20301;-81
2023/05/18 05:26:07;;;;;;;8.20;2.45;;;9.60;99.90;;;;;;4946125;29;20282;-81
2023/05/18 05:28:33;;;;;;;10.23;2.55;;;9.60;99.90;;;;;;4942975;29;20295;-84
2023/05/18 05:30:59;;;;;;;7.65;2.28;;;9.60;99.90;;;;;;4929451;29;20237;-82
2023/05/18 05:33:25;;;;;;;11.90;2.50;;;9.70;99.90;;;;;;4928904;29;20716;-83
2023/05/18 05:35:51;;;;;;;9.57;2.28;;;9.70;99.90;;;;;;4946544;29;20183;-82
2023/05/18 05:38:17;;;;;;;12.65;2.70;;;9.70;99.90;;;;;;4946178;29;20266;-82
2023/05/18 05:40:43;;;;;;;9.80;2.60;;;9.70;99.90;;;;;;4935467;29;20329;-82
2023/05/18 05:43:09;;;;;;;8.63;2.75;;;9.70;99.90;;;;;;4929129;29;20278;-82
2023/05/18 05:45:35;;;;;;;11.52;2.80;;;9.70;99.90;;;;;;4933052;29;20175;-82
2023/05/18 05:48:05;;;;;;;10.55;2.95;;;9.70;99.90;;;;;;4937950;29;20630;-82
2023/05/18 05:50:31;;;;;;;9.82;2.80;;;9.80;99.90;;;;;;4924142;29;20191;-82
2023/05/18 05:53:00;;;;;;;9.77;2.80;;;9.80;99.90;;;;;;4926567;29;20206;-83
2023/05/18 05:55:27;;;;;;;10.30;2.88;;;9.80;99.90;;;;;;4918502;29;20605;-83
2023/05/18 05:57:53;;;;;;;10.35;2.83;;;9.80;99.90;;;;;;4925595;29;20216;-83
2023/05/18 06:00:19;;;;;;;11.52;2.75;;;9.80;99.90;;;;;;4933757;29;20676;-83
2023/05/18 06:02:53;;;;;;;10.82;3.17;;;9.90;99.90;;;;;;4950361;28;20242;-82
2023/05/18 06:05:51;;;;;;;11.50;3.25;;;9.90;99.90;;;;;;4924811;29;20534;-83
2023/05/18 06:08:19;;;;;;;10.52;3.08;;;10.00;99.90;;;;;;4952159;29;20199;-82
2023/05/18 06:10:46;;;;;;;11.90;3.20;;;10.00;99.90;;;;;;4906910;29;20215;-83
2023/05/18 06:13:12;;;;;;;8.88;2.75;;;10.00;99.90;;;;;;4950820;29;20203;-84
2023/05/18 06:15:49;;;;;;;7.28;2.97;;;10.00;99.90;;;;;;4953878;29;20187;-85
2023/05/18 06:18:15;;;;;;;11.73;3.22;;;10.10;99.90;;;;;;4952464;29;20672;-84
2023/05/18 06:20:41;;;;;;;10.35;3.05;;;10.10;99.90;;;;;;4938326;29;20554;-84
2023/05/18 06:23:07;;;;;;;11.98;3.20;;;10.10;99.90;;;;;;4937297;29;20199;-83
2023/05/18 06:25:52;;;;;;;10.85;3.25;;;10.20;99.90;;;;;;4937837;29;20523;-83
2023/05/18 06:28:44;;;;;;;11.52;3.10;;;10.20;99.90;;;;;;4934818;29;20285;-84
2023/05/18 06:31:25;;;;;;;10.80;2.80;;;10.20;99.90;;;;;;4936144;29;20198;-84
2023/05/18 06:33:58;;;;;;;9.57;2.97;;;10.20;99.90;;;;;;4934675;29;20195;-84
2023/05/18 06:36:24;;;;;;;10.60;3.00;;;10.30;99.90;;;;;;4920518;29;20199;-82
2023/05/18 06:38:50;;;;;;;9.73;2.88;;;10.30;99.90;;;;;;4926339;29;20736;-82
2023/05/18 06:41:16;;;;;;;9.65;2.72;;;10.30;99.90;;;;;;4928853;29;20190;-83
2023/05/18 06:43:42;;;;;;;13.93;3.28;;;10.30;99.90;;;;;;4933769;29;20198;-82
2023/05/18 06:46:37;;;;;;;12.15;2.80;;;10.40;99.90;;;;;;4930225;29;20259;-83
2023/05/18 06:49:12;;;;;;;12.48;3.00;;;10.50;99.90;;;;;;4941737;29;20167;-82
2023/05/18 06:51:38;;;;;;;7.07;2.70;;;10.60;99.90;;;;;;4936840;29;20666;-85
2023/05/18 06:54:05;;;;;;;8.77;2.45;;;10.60;99.90;;;;;;4934623;29;20188;-83
2023/05/18 06:56:31;;;;;;;12.35;2.85;;;10.70;99.90;;;;;;4933847;29;20199;-83
2023/05/18 06:58:57;;;;;;;12.15;2.90;;;10.80;99.50;;;;;;4925532;29;20226;-85
2023/05/18 07:01:23;;;;;;;11.77;2.90;;;10.80;99.40;;;;;;4950867;29;20262;-82
2023/05/18 07:03:49;;;;;;;9.23;3.17;;;10.90;99.30;;;;;;4937560;29;20175;-83
2023/05/18 07:06:15;;;;;;;9.70;3.05;;;11.00;99.00;;;;;;4924479;29;20275;-83
2023/05/18 07:08:42;;;;;;;10.15;2.47;;;11.10;99.00;;;;;;4945294;29;20196;-86
2023/05/18 07:11:08;;;;;;;11.25;2.55;;;11.20;98.80;;;;;;4933347;29;20239;-84
2023/05/18 07:13:34;;;;;;;8.48;2.28;;;11.30;98.60;;;;;;4924424;29;20192;-84
2023/05/18 07:16:00;;;;;;;13.57;3.35;;;11.30;98.50;;;;;;4928678;29;20196;-83
2023/05/18 07:18:26;;;;;;;11.75;2.80;;;11.40;98.40;;;;;;4933520;29;20229;-83
2023/05/18 07:20:51;;;;;;;14.88;2.88;;;11.60;98.40;;;;;;4952774;29;20214;-83
2023/05/18 07:23:17;;;;;;;8.40;2.83;;;11.60;98.20;;;;;;4936460;29;20591;-83
2023/05/18 07:25:43;;;;;;;8.95;2.38;;;11.70;97.90;;;;;;4950679;29;20522;-83
2023/05/18 07:28:09;;;;;;;11.48;2.67;;;11.80;97.80;;;;;;4930523;29;20673;-83
2023/05/18 07:30:34;;;;;;;12.48;2.47;;;11.90;97.50;;;;;;4949981;29;20194;-81
2023/05/18 07:33:00;;;;;;;6.82;2.50;;;11.90;97.20;;;;;;4937762;29;20642;-82
2023/05/18 07:35:26;;;;;;;11.10;2.97;;;12.00;97.10;;;;;;4933914;29;20180;-81
2023/05/18 07:37:52;;;;;;;9.90;2.60;;;12.10;97.00;;;;;;4950132;29;20598;-81
2023/05/18 07:40:19;;;;;;;6.88;2.38;;;12.20;96.80;;;;;;4938017;29;20274;-82
2023/05/18 07:42:45;;;;;;;9.77;2.60;;;12.30;96.60;;;;;;4925009;29;20234;-82
2023/05/18 07:45:11;;;;;;;8.23;2.55;;;12.30;96.40;;;;;;4932963;29;20212;-82
2023/05/18 07:47:37;;;;;;;9.10;2.85;;;12.30;96.30;;;;;;4916942;29;20282;-82
2023/05/18 07:50:03;;;;;;;9.95;2.75;;;12.30;96.10;;;;;;4927958;29;20184;-82
2023/05/18 07:52:29;;;;;;;9.80;2.58;;;12.30;96.00;;;;;;4936884;29;20194;-82
2023/05/18 07:54:58;;;;;;;10.55;2.70;;;12.40;95.90;;;;;;4952127;29;20262;-82
2023/05/18 07:57:24;;;;;;;7.85;2.42;;;12.40;95.80;;;;;;4951823;29;20297;-82
2023/05/18 07:59:51;;;;;;;10.07;2.55;;;12.40;95.90;;;;;;4907482;29;20220;-82
2023/05/18 08:02:18;;;;;;;14.20;2.40;;;12.40;95.80;;;;;;4917063;29;20184;-82
2023/05/18 08:04:45;;;;;;;12.20;2.53;;;12.40;95.60;;;;;;4934679;29;20655;-81
2023/05/18 08:07:11;;;;;;;6.13;2.58;;;12.50;95.70;;;;;;4935687;29;20315;-81
2023/05/18 08:09:37;;;;;;;9.50;2.35;;;12.50;95.50;;;;;;4935997;29;20715;-82
2023/05/18 08:12:04;;;;;;;12.73;2.70;;;12.60;95.30;;;;;;4934970;29;20196;-82
2023/05/18 08:14:30;;;;;;;9.90;2.80;;;12.70;95.30;;;;;;4935891;29;20179;-81
2023/05/18 08:16:56;;;;;;;9.32;2.30;;;12.90;95.00;;;;;;4949225;29;20640;-81
2023/05/18 08:19:21;;;;;;;8.40;2.60;;;13.00;94.70;;;;;;4935679;29;20239;-82
2023/05/18 08:21:47;;;;;;;7.38;2.58;;;13.20;94.40;;;;;;4935546;29;20203;-82
2023/05/18 08:24:13;;;;;;;11.18;2.58;;;13.30;94.10;;;;;;4904238;29;20645;-82
2023/05/18 08:26:38;;;;;;;12.15;2.58;;;13.40;94.00;;;;;;4935264;29;20211;-82
2023/05/18 08:29:08;;;;;;;11.05;2.92;;;13.50;93.60;;;;;;4935470;29;20278;-83
2023/05/18 08:31:41;;;;;;;12.13;2.42;;;13.60;93.60;;;;;;4935863;29;20180;-82
2023/05/18 08:34:07;;;;;;;10.48;2.50;;;13.60;93.30;;;;;;4936655;29;20282;-80
2023/05/18 08:36:35;;;;;;;9.98;2.72;;;13.80;93.30;;;;;;4935230;29;20227;-81
2023/05/18 08:39:01;;;;;;;7.82;2.80;;;13.90;92.90;;;;;;4935343;29;20673;-85
2023/05/18 08:41:57;;;;;;;6.75;2.45;;;13.90;92.60;;;;;;4901571;29;20196;-82
2023/05/18 08:44:37;;;;;;;6.10;2.30;;;13.90;92.40;;;;;;4916591;29;20168;-82
2023/05/18 08:47:08;;;;;;;9.75;2.45;;;13.90;92.30;;;;;;4916132;29;20234;-82
2023/05/18 08:49:34;;;;;;;8.70;2.33;;;13.80;92.30;;;;;;4922412;29;20274;-82
2023/05/18 08:52:03;;;;;;;9.90;2.45;;;13.80;92.30;;;;;;4919463;29;20179;-82
2023/05/18 08:54:30;;;;;;;8.80;2.60;;;13.80;92.30;;;;;;4935088;29;20207;-82
2023/05/18 08:56:57;;;;;;;8.18;2.53;;;13.80;92.30;;;;;;4936167;29;20231;-84
2023/05/18 08:59:29;;;;;;;11.90;2.70;;;13.80;92.20;;;;;;4934926;29;20290;-83
2023/05/18 09:01:56;;;;;;;9.93;2.40;;;13.90;92.10;;;;;;4942782;29;20613;-82
2023/05/18 09:04:22;;;;;;;9.63;2.75;;;14.00;91.90;;;;;;4954430;29;20207;-81
2023/05/18 09:06:50;;;;;;;10.68;2.88;;;14.10;92.00;;;;;;4946771;28;20222;-82
2023/05/18 09:09:17;;;;;;;14.52;2.83;;;14.20;92.20;;;;;;4936477;29;20271;-83
2023/05/18 09:11:45;;;;;;;10.75;2.88;;;14.20;91.60;;;;;;4950697;29;20207;-83
2023/05/18 09:14:12;;;;;;;8.40;2.70;;;14.20;91.50;;;;;;4917714;29;20180;-80
2023/05/18 09:16:37;;;;;;;11.20;3.05;;;14.20;91.60;;;;;;4927834;29;20291;-83
2023/05/18 09:19:03;;;;;;;10.80;2.83;;;14.20;91.70;;;;;;4931870;29;20714;-83
2023/05/18 09:21:31;;;;;;;12.65;2.95;;;14.30;91.50;;;;;;4900123;29;20219;-83
2023/05/18 09:23:58;;;;;;;13.07;2.95;;;14.30;91.40;;;;;;4930371;29;20684;-81
2023/05/18 09:26:24;;;;;;;10.73;2.70;;;14.30;91.30;;;;;;4930652;29;20180;-82
2023/05/18 09:28:53;;;;;;;8.80;2.75;;;14.20;91.30;;;;;;4916941;29;20208;-82
2023/05/18 09:31:20;;;;;;;7.60;2.80;;;14.30;91.50;;;;;;4917004;29;20275;-83
2023/05/18 09:33:47;;;;;;;9.48;2.92;;;14.30;91.30;;;;;;4915747;29;20271;-82
2023/05/18 09:36:16;;;;;;;7.18;2.85;;;14.40;91.20;;;;;;4931750;29;20176;-82
2023/05/18 09:38:47;;;;;;;7.82;2.80;;;14.40;91.10;;;;;;4921259;29;20677;-83
2023/05/18 09:41:16;;;;;;;11.98;3.03;;;14.40;91.00;;;;;;4938000;29;20183;-84
2023/05/18 09:43:42;;;;;;;10.20;3.03;;;14.30;91.00;;;;;;4936225;29;20175;-82
2023/05/18 09:46:10;;;;;;;16.13;3.05;;;14.30;91.10;;;;;;4935667;29;20188;-82
2023/05/18 09:48:40;;;;;;;14.02;2.90;;;14.40;91.10;;;;;;4921204;29;20242;-82
2023/05/18 09:51:06;;;;;;;12.15;3.42;;;14.40;91.00;;;;;;4919480;29;20184;-82
2023/05/18 09:53:38;;;;;;;7.57;3.00;;;14.50;90.80;;;;;;4919515;29;20541;-81
2023/05/18 09:56:10;;;;;;;10.02;3.60;;;14.50;90.70;;;;;;4920425;29;20207;-82
2023/05/18 09:58:38;;;;;;;10.00;2.75;;;14.60;90.70;;;;;;4933644;29;20677;-82
2023/05/18 10:01:04;;;;;;;10.13;3.45;;;14.60;90.70;;;;;;4940353;29;20187;-82
2023/05/18 10:03:38;;;;;;;10.90;3.53;;;14.70;90.90;;;;;;4939399;29;20183;-82
2023/05/18 10:06:05;;;;;;;11.45;3.35;;;14.80;90.70;;;;;;4938423;29;20223;-83
2023/05/18 10:08:32;;;;;;;8.38;3.60;;;14.80;90.60;;;;;;4938111;29;20223;-82
2023/05/18 10:10:58;;;;;;;14.23;3.50;;;14.80;90.60;;;;;;4938115;29;20194;-83
2023/05/18 10:13:25;;;;;;;8.95;3.05;;;14.80;90.50;;;;;;4953637;29;20558;-84
2023/05/18 10:15:57;;;;;;;12.07;2.90;;;14.90;90.60;;;;;;4938047;29;20203;-82
2023/05/18 10:18:34;;;;;;;13.48;3.50;;;14.90;90.50;;;;;;4954089;29;20212;-83
2023/05/18 10:21:02;;;;;;;13.75;3.20;;;14.90;90.40;;;;;;4938611;29;20195;-83
2023/05/18 10:23:34;;;;;;;7.55;3.15;;;14.90;90.40;;;;;;4939119;29;20183;-83
2023/05/18 10:26:03;;;;;;;12.35;2.97;;;15.00;90.50;;;;;;4921935;29;20202;-82
2023/05/18 10:28:43;;;;;;;7.75;2.78;;;15.00;90.40;;;;;;4937460;29;20259;-84
2023/05/18 10:31:09;;;;;;;9.55;3.05;;;15.00;90.20;;;;;;4937816;29;20200;-83
2023/05/18 10:33:36;;;;;;;8.65;3.42;;;15.10;90.30;;;;;;4919224;29;20192;-82
2023/05/18 10:36:06;;;;;;;9.38;2.78;;;15.10;90.10;;;;;;4934626;29;20180;-83
2023/05/18 10:38:35;;;;;;;6.93;2.70;;;15.10;90.10;;;;;;4920367;29;20220;-84
2023/05/18 10:41:02;;;;;;;9.93;3.22;;;15.20;90.10;;;;;;4929121;29;20187;-84
2023/05/18 10:43:28;;;;;;;8.73;3.10;;;15.20;90.20;;;;;;4937680;29;20194;-83
2023/05/18 10:45:54;;;;;;;8.43;2.53;;;15.20;90.30;;;;;;4914031;29;20279;-83
2023/05/18 10:48:21;;;;;;;10.40;2.88;;;15.30;90.10;;;;;;4921172;29;20227;-83
2023/05/18 10:50:49;;;;;;;11.68;2.97;;;15.30;90.10;;;;;;4938353;29;20286;-83
2023/05/18 10:53:23;;;;;;;7.68;2.15;;;15.40;89.10;;;;;;4934427;29;20652;-83
2023/05/18 10:55:50;;;;;;;14.07;2.63;;;15.40;88.90;;;;;;4919521;29;20670;-83
2023/05/18 10:58:18;;;;;;;9.10;2.78;;;15.40;89.10;;;;;;4917820;29;20247;-83
2023/05/18 11:00:50;;;;;;;7.30;2.65;;;15.50;88.80;;;;;;4919084;29;20176;-83
2023/05/18 11:03:16;;;;;;;11.43;2.22;;;15.50;87.90;;;;;;4919203;29;20215;-84
2023/05/18 11:05:42;;;;;;;11.40;2.47;;;15.50;87.50;;;;;;4926975;29;20234;-84
2023/05/18 11:08:09;;;;;;;9.13;3.08;;;15.60;87.50;;;;;;4952758;29;20187;-84
2023/05/18 11:10:42;;;;;;;11.18;3.28;;;15.60;86.60;;;;;;4936836;29;20188;-83
2023/05/18 11:13:11;;;;;;;8.55;2.95;;;15.60;86.50;;;;;;4933778;29;20199;-83
2023/05/18 11:16:05;;;;;;;6.85;2.42;;;15.50;86.40;;;;;;4922850;29;20175;-84
2023/05/18 11:18:38;;;;;;;8.98;2.72;;;15.50;85.80;;;;;;4935033;29;20305;-82
2023/05/18 11:21:17;;;;;;;11.57;2.95;;;15.40;86.80;;;;;;4938077;29;20175;-84
2023/05/18 11:24:04;;;;;;;9.93;2.70;;;15.30;86.80;;;;;;4936304;29;20279;-82
2023/05/18 11:26:30;;;;;;;11.52;2.53;;;15.30;87.00;;;;;;4936787;29;20656;-84
2023/05/18 11:28:57;;;;;;;8.43;2.95;;;15.30;87.20;;;;;;4929364;29;20188;-83
2023/05/18 11:31:43;;;;;;;7.35;2.90;;;15.30;87.30;;;;;;4930239;29;20684;-83
2023/05/18 11:34:43;;;;;;;9.68;2.88;;;15.40;86.90;;;;;;4917423;29;20219;-82
2023/05/18 11:37:36;;;;;;;9.05;2.97;;;15.30;86.90;;;;;;4901692;29;20188;-84
2023/05/18 11:40:04;;;;;;;7.22;2.50;;;15.40;87.40;;;;;;4937010;29;20253;-84
2023/05/18 11:42:33;;;;;;;7.22;2.67;;;15.50;87.40;;;;;;4919870;29;20202;-83
2023/05/18 11:45:10;;;;;;;9.07;3.00;;;15.50;86.70;;;;;;4936603;29;20198;-83
2023/05/18 11:47:38;;;;;;;8.23;2.78;;;15.50;86.90;;;;;;4916507;29;20238;-83
2023/05/18 11:50:09;;;;;;;9.45;2.75;;;15.60;86.00;;;;;;4926864;29;20215;-83
2023/05/18 11:52:50;;;;;;;13.15;3.13;;;15.70;85.50;;;;;;4936136;29;20175;-83
2023/05/18 11:55:18;;;;;;;11.77;2.85;;;15.70;85.30;;;;;;4921087;29;20192;-84
2023/05/18 11:57:53;;;;;;;7.30;2.60;;;15.70;85.20;;;;;;4916131;29;20575;-83
2023/05/18 12:00:19;;;;;;;9.63;3.17;;;15.80;84.60;;;;;;4914611;29;20286;-83
2023/05/18 12:02:47;;;;;;;8.30;2.65;;;15.70;84.40;;;;;;4917166;29;20185;-81
2023/05/18 12:05:14;;;;;;;9.68;2.70;;;15.70;84.40;;;;;;4918045;29;20180;-83
2023/05/18 12:07:40;;;;;;;9.23;2.80;;;15.80;84.30;;;;;;4916958;29;20754;-82
2023/05/18 12:10:11;;;;;;;9.60;2.60;;;15.90;84.30;;;;;;4916942;29;20270;-83
2023/05/18 12:12:38;;;;;;;9.07;2.55;;;15.90;84.60;;;;;;4916781;29;20188;-85
2023/05/18 12:15:06;;;;;;;7.75;2.67;;;16.00;84.70;;;;;;4926041;29;20197;-83
2023/05/18 12:17:43;;;;;;;11.82;2.80;;;16.20;84.40;;;;;;4935561;29;20179;-84
2023/05/18 12:20:17;;;;;;;10.48;3.30;;;16.20;84.10;;;;;;4935745;29;20295;-83
2023/05/18 12:22:45;;;;;;;12.00;3.45;;;16.30;83.60;;;;;;4935258;29;20269;-83
2023/05/18 12:25:11;;;;;;;8.80;2.97;;;16.40;83.00;;;;;;4919818;29;20258;-82
2023/05/18 12:27:43;;;;;;;9.90;3.17;;;16.50;82.10;;;;;;4935478;29;20262;-83
2023/05/18 12:30:11;;;;;;;11.63;2.85;;;16.60;81.80;;;;;;4942050;29;20218;-89
2023/05/18 12:32:37;;;;;;;8.07;3.00;;;16.50;82.10;;;;;;4935516;29;20246;-83
2023/05/18 12:35:04;;;;;;;6.93;2.40;;;16.60;82.40;;;;;;4951056;29;20191;-83
2023/05/18 12:37:30;;;;;;;8.65;2.75;;;16.60;82.70;;;;;;4937051;29;20179;-90
2023/05/18 12:39:56;;;;;;;7.72;2.75;;;16.60;82.60;;;;;;4935197;29;20258;-83
2023/05/18 12:42:22;;;;;;;11.25;2.65;;;16.60;82.60;;;;;;4936353;29;20211;-82
2023/05/18 12:44:49;;;;;;;9.20;3.00;;;16.60;82.80;;;;;;4936516;29;20210;-82
2023/05/18 12:47:15;;;;;;;12.05;3.67;;;16.60;83.00;;;;;;4933588;29;20294;-85
2023/05/18 12:49:46;;;;;;;7.80;2.85;;;16.60;83.20;;;;;;4923725;29;20187;-84
2023/05/18 12:52:14;;;;;;;9.32;2.53;;;16.60;83.30;;;;;;4924435;29;20176;-84
2023/05/18 12:54:54;;;;;;;9.98;2.85;;;16.60;83.00;;;;;;4932635;29;20191;-82